Time;durP1;ratioP1;P1;durP2;ratioP2;P2;SDS_P1;SDS_P2;PMS_P1;PMS_P2;Temp;Humidity;BMP_temperature;BMP_pressure;BME280_temperature;BME280_humidity;BME280_pressure;Samples;Min_cycle;Max_cycle;Signal;HPM_P1;HPM_P2
2022/12/26 00:01:58;;;;;;;5.82;4.55;;;;;;;;;;4952730;28;20063;-73
2022/12/26 00:04:23;;;;;;;6.85;4.70;;;;;;;;;;4950777;28;20054;-73
2022/12/26 00:06:49;;;;;;;9.27;5.30;;;;;;;;;;4952413;28;20047;-73
2022/12/26 00:09:14;;;;;;;6.63;4.72;;;;;;;;;;4952649;28;20529;-73
2022/12/26 00:11:40;;;;;;;9.23;5.85;;;;;;;;;;4951941;28;20432;-73
2022/12/26 00:14:08;;;;;;;6.13;5.38;;;;;;;;;;4950739;28;20074;-73
2022/12/26 00:16:34;;;;;;;7.38;5.40;;;;;;;;;;4952168;28;20496;-72
2022/12/26 00:19:00;;;;;;;5.25;4.53;;;;;;;;;;4952318;28;20082;-73
2022/12/26 00:21:27;;;;;;;4.82;4.07;;;;;;;;;;4951834;28;20154;-73
2022/12/26 00:23:55;;;;;;;8.90;4.93;;;;;;;;;;4951711;28;20054;-73
2022/12/26 00:26:22;;;;;;;7.10;4.60;;;;;;;;;;4951116;28;20530;-73
2022/12/26 00:28:48;;;;;;;6.28;4.60;;;;;;;;;;4951667;28;20455;-73
2022/12/26 00:31:19;;;;;;;5.38;4.88;;;;;;;;;;4951854;28;20067;-73
2022/12/26 00:33:45;;;;;;;6.85;3.67;;;;;;;;;;4951091;28;20054;-73
2022/12/26 00:36:22;;;;;;;5.45;4.65;;;;;;;;;;4951079;28;20055;-73
2022/12/26 00:38:49;;;;;;;5.90;3.97;;;;;;;;;;4951551;28;20047;-73
2022/12/26 00:41:15;;;;;;;4.93;4.38;;;;;;;;;;4951915;28;20129;-73
2022/12/26 00:43:41;;;;;;;4.75;4.05;;;;;;;;;;4950856;28;20046;-73
2022/12/26 00:46:08;;;;;;;5.47;4.30;;;;;;;;;;4951645;28;20056;-73
2022/12/26 00:48:33;;;;;;;6.65;4.22;;;;;;;;;;4966137;28;20050;-73
2022/12/26 00:50:59;;;;;;;5.20;3.83;;;;;;;;;;4951593;28;20051;-73
2022/12/26 00:53:26;;;;;;;4.50;3.80;;;;;;;;;;4950625;28;20118;-73
2022/12/26 00:55:52;;;;;;;7.22;4.00;;;;;;;;;;4951845;28;20046;-73
2022/12/26 00:58:18;;;;;;;5.05;3.72;;;;;;;;;;4950875;28;20093;-73
2022/12/26 01:00:44;;;;;;;9.02;4.20;;;;;;;;;;4951511;28;20057;-73
2022/12/26 01:03:10;;;;;;;5.63;3.88;;;;;;;;;;4951185;28;20055;-73
2022/12/26 01:05:43;;;;;;;4.68;3.88;;;;;;;;;;4951111;28;20058;-73
2022/12/26 01:08:09;;;;;;;5.43;3.95;;;;;;;;;;4950909;28;20051;-73
2022/12/26 01:10:34;;;;;;;5.38;4.03;;;;;;;;;;4951132;28;20098;-73
2022/12/26 01:13:00;;;;;;;3.97;3.53;;;;;;;;;;4950773;28;20482;-73
2022/12/26 01:15:25;;;;;;;6.00;4.22;;;;;;;;;;4950909;28;20024;-73
2022/12/26 01:17:50;;;;;;;4.75;4.00;;;;;;;;;;4951729;28;20047;-73
2022/12/26 01:20:16;;;;;;;3.88;3.50;;;;;;;;;;4943628;28;20055;-73
2022/12/26 01:22:41;;;;;;;4.75;3.85;;;;;;;;;;4943914;28;20051;-73
2022/12/26 01:25:07;;;;;;;6.50;3.92;;;;;;;;;;4949450;28;20043;-73
2022/12/26 01:27:32;;;;;;;4.13;3.70;;;;;;;;;;4948950;28;20053;-73
2022/12/26 01:29:58;;;;;;;8.15;3.55;;;;;;;;;;4948123;28;20058;-73
2022/12/26 01:32:23;;;;;;;4.50;3.50;;;;;;;;;;4955959;28;20055;-73
2022/12/26 01:34:51;;;;;;;4.90;3.80;;;;;;;;;;4948728;28;20047;-73
2022/12/26 01:37:16;;;;;;;4.13;3.70;;;;;;;;;;4950813;28;20055;-73
2022/12/26 01:39:42;;;;;;;3.83;3.42;;;;;;;;;;4949495;28;20130;-73
2022/12/26 01:42:13;;;;;;;6.30;3.38;;;;;;;;;;4951128;28;20051;-73
2022/12/26 01:45:19;;;;;;;4.60;3.73;;;;;;;;;;4950835;28;20043;-73
2022/12/26 01:47:48;;;;;;;4.07;3.35;;;;;;;;;;4959620;28;20303;-73
2022/12/26 01:50:46;;;;;;;3.97;2.97;;;;;;;;;;4951105;28;20070;-73
2022/12/26 01:53:22;;;;;;;5.82;3.45;;;;;;;;;;4952302;28;20055;-73
2022/12/26 01:55:54;;;;;;;6.40;3.20;;;;;;;;;;4954587;28;20130;-73
2022/12/26 01:58:27;;;;;;;3.80;3.20;;;;;;;;;;4947204;28;20138;-73
2022/12/26 02:00:53;;;;;;;3.50;3.15;;;;;;;;;;4954522;28;20051;-73
2022/12/26 02:06:03;;;;;;;4.30;3.42;;;;;;;;;;4954368;28;20073;-73
2022/12/26 02:08:33;;;;;;;4.10;3.33;;;;;;;;;;4954044;28;20496;-73
2022/12/26 02:11:11;;;;;;;4.93;3.17;;;;;;;;;;4954388;28;20051;-73
2022/12/26 02:13:37;;;;;;;3.97;3.58;;;;;;;;;;4953636;28;20082;-73
2022/12/26 02:16:05;;;;;;;4.00;3.28;;;;;;;;;;4954662;28;20055;-73
2022/12/26 02:18:30;;;;;;;4.15;3.35;;;;;;;;;;4953972;28;20062;-73
2022/12/26 02:21:44;;;;;;;3.72;3.42;;;;;;;;;;4954244;28;20039;-73
2022/12/26 02:24:34;;;;;;;7.65;3.60;;;;;;;;;;4921202;29;20043;-73
2022/12/26 02:27:14;;;;;;;3.50;3.10;;;;;;;;;;4935402;28;20051;-73
2022/12/26 02:29:40;;;;;;;4.00;3.30;;;;;;;;;;4938126;28;20047;-73
2022/12/26 02:32:21;;;;;;;3.67;3.10;;;;;;;;;;4953768;28;20066;-73
2022/12/26 02:35:08;;;;;;;4.43;3.42;;;;;;;;;;4953706;28;20072;-73
2022/12/26 02:37:36;;;;;;;3.92;3.40;;;;;;;;;;4953673;28;20043;-73
2022/12/26 02:40:18;;;;;;;9.15;3.17;;;;;;;;;;4953936;28;20082;-73
2022/12/26 02:43:02;;;;;;;4.60;3.20;;;;;;;;;;4948170;28;20050;-73
2022/12/26 02:48:50;;;;;;;5.40;3.53;;;;;;;;;;4953978;28;20043;-73
2022/12/26 03:14:48;;;;;;;4.22;2.97;;;;;;;;;;4952051;28;20105;-74
2022/12/26 03:17:30;;;;;;;5.93;3.47;;;;;;;;;;4953256;28;20062;-73
2022/12/26 03:20:02;;;;;;;3.65;3.10;;;;;;;;;;4966036;28;20043;-73
2022/12/26 03:22:44;;;;;;;4.32;3.78;;;;;;;;;;4953384;28;20047;-73
2022/12/26 03:27:57;;;;;;;3.05;2.75;;;;;;;;;;4945623;28;20071;-73
2022/12/26 03:34:15;;;;;;;5.82;3.33;;;;;;;;;;4933332;28;20069;-73
2022/12/26 03:35:52;;;;;;;4.00;3.60;;;;;;;;;;4929184;29;20147;-73
2022/12/26 03:38:21;;;;;;;4.07;3.38;;;;;;;;;;4951771;28;20130;-73
2022/12/26 04:20:32;;;;;;;3.25;2.95;;;;;;;;;;4910743;28;20075;-73
2022/12/26 04:45:29;;;;;;;4.13;3.22;;;;;;;;;;4962799;28;20086;-70
2022/12/26 04:50:50;;;;;;;3.80;3.03;;;;;;;;;;4971138;28;20533;-69
2022/12/26 04:53:16;;;;;;;3.38;2.83;;;;;;;;;;4969747;28;20518;-69
2022/12/26 04:55:42;;;;;;;3.55;3.08;;;;;;;;;;4970480;28;20054;-69
2022/12/26 04:58:07;;;;;;;3.60;3.10;;;;;;;;;;4971399;28;20043;-69
2022/12/26 05:00:32;;;;;;;4.10;3.15;;;;;;;;;;4969748;28;20055;-70
2022/12/26 05:09:33;;;;;;;3.40;2.67;;;;;;;;;;4964549;28;20055;-70
2022/12/26 05:11:28;;;;;;;2.92;2.70;;;;;;;;;;4970163;28;20403;-70
2022/12/26 05:13:55;;;;;;;3.40;3.10;;;;;;;;;;4968006;28;20074;-70
2022/12/26 05:30:08;;;;;;;4.10;3.33;;;;;;;;;;4974378;28;20047;-70
2022/12/26 05:35:18;;;;;;;4.03;3.25;;;;;;;;;;4973411;28;20407;-72
2022/12/26 05:37:46;;;;;;;4.80;3.58;;;;;;;;;;4973627;28;20074;-70
2022/12/26 05:40:11;;;;;;;9.85;3.65;;;;;;;;;;4974259;28;20043;-69
2022/12/26 05:42:37;;;;;;;4.10;3.17;;;;;;;;;;4974690;28;20105;-69
2022/12/26 05:45:02;;;;;;;3.38;3.00;;;;;;;;;;4973778;28;20051;-69
2022/12/26 05:47:28;;;;;;;4.20;3.30;;;;;;;;;;4970553;28;20047;-70
2022/12/26 05:49:53;;;;;;;3.22;2.88;;;;;;;;;;4973488;28;20494;-70
2022/12/26 05:52:18;;;;;;;3.67;3.33;;;;;;;;;;4989791;28;20511;-69
2022/12/26 05:54:44;;;;;;;3.03;2.78;;;;;;;;;;4956716;28;20042;-70
2022/12/26 05:57:09;;;;;;;4.30;3.63;;;;;;;;;;4989919;28;20053;-70
2022/12/26 05:59:35;;;;;;;3.72;3.35;;;;;;;;;;4973112;28;20085;-70
2022/12/26 06:02:00;;;;;;;5.53;3.15;;;;;;;;;;4974353;28;20054;-70
2022/12/26 06:04:25;;;;;;;4.18;2.88;;;;;;;;;;4988763;28;20039;-70
2022/12/26 06:06:55;;;;;;;3.20;2.88;;;;;;;;;;4989220;28;20047;-70
2022/12/26 06:09:21;;;;;;;2.78;2.58;;;;;;;;;;4972502;28;20121;-70
2022/12/26 06:11:48;;;;;;;3.83;2.85;;;;;;;;;;4972664;28;20483;-70
2022/12/26 06:14:14;;;;;;;3.60;2.97;;;;;;;;;;4973239;28;20143;-70
2022/12/26 06:16:39;;;;;;;6.00;3.47;;;;;;;;;;4973642;28;20110;-70
2022/12/26 06:19:05;;;;;;;3.95;2.75;;;;;;;;;;4973982;28;20388;-70
2022/12/26 06:21:30;;;;;;;3.03;2.50;;;;;;;;;;4970907;28;20593;-69
2022/12/26 06:23:56;;;;;;;3.92;3.28;;;;;;;;;;4987919;28;20050;-70
2022/12/26 06:26:21;;;;;;;2.85;2.55;;;;;;;;;;4972306;28;20083;-70
2022/12/26 06:28:46;;;;;;;2.72;2.53;;;;;;;;;;4972309;28;20055;-69
2022/12/26 06:31:19;;;;;;;3.95;2.85;;;;;;;;;;4972501;28;20061;-69
2022/12/26 06:33:44;;;;;;;3.95;3.25;;;;;;;;;;4972197;28;20055;-69
2022/12/26 06:36:13;;;;;;;4.05;3.03;;;;;;;;;;4973204;28;20047;-69
2022/12/26 06:38:39;;;;;;;4.15;2.97;;;;;;;;;;4988479;28;20050;-70
2022/12/26 06:41:06;;;;;;;5.82;3.00;;;;;;;;;;4973366;28;20053;-70
2022/12/26 06:43:32;;;;;;;3.53;2.70;;;;;;;;;;4971229;28;20042;-69
2022/12/26 06:45:59;;;;;;;5.80;3.00;;;;;;;;;;4973062;28;20545;-69
2022/12/26 06:48:25;;;;;;;3.30;3.00;;;;;;;;;;4973622;28;20081;-69
2022/12/26 06:50:50;;;;;;;3.58;2.83;;;;;;;;;;4973247;28;20411;-69
2022/12/26 06:53:16;;;;;;;3.55;2.72;;;;;;;;;;4971892;28;20105;-69
2022/12/26 06:55:41;;;;;;;3.00;2.65;;;;;;;;;;4972230;28;20050;-69
2022/12/26 06:58:07;;;;;;;2.45;2.25;;;;;;;;;;4973115;28;20067;-69
2022/12/26 07:00:32;;;;;;;2.70;2.50;;;;;;;;;;4987840;28;20645;-69
2022/12/26 07:02:58;;;;;;;3.75;2.58;;;;;;;;;;4973002;28;20063;-69
2022/12/26 07:05:23;;;;;;;3.08;2.35;;;;;;;;;;4970947;28;20085;-69
2022/12/26 07:07:52;;;;;;;4.03;2.70;;;;;;;;;;4987546;28;20709;-69
2022/12/26 07:10:19;;;;;;;4.85;3.30;;;;;;;;;;4987687;28;20046;-69
2022/12/26 07:12:45;;;;;;;4.05;2.47;;;;;;;;;;4971499;28;20503;-70
2022/12/26 07:15:11;;;;;;;2.75;2.25;;;;;;;;;;4971728;28;20503;-69
2022/12/26 07:17:36;;;;;;;4.32;2.60;;;;;;;;;;4978895;28;20055;-69
2022/12/26 07:20:06;;;;;;;3.38;2.40;;;;;;;;;;4972716;28;20043;-69
2022/12/26 07:22:32;;;;;;;3.10;2.80;;;;;;;;;;4972439;28;20057;-69
2022/12/26 07:24:57;;;;;;;3.17;2.85;;;;;;;;;;4972045;28;20042;-70
2022/12/26 07:27:23;;;;;;;3.70;3.08;;;;;;;;;;4971296;28;20039;-70
2022/12/26 07:29:48;;;;;;;5.35;3.85;;;;;;;;;;4972500;28;20047;-69
2022/12/26 07:32:14;;;;;;;6.00;4.00;;;;;;;;;;4987320;28;20042;-69
2022/12/26 07:34:41;;;;;;;7.63;3.40;;;;;;;;;;4972044;28;20043;-70
2022/12/26 07:37:06;;;;;;;3.63;3.25;;;;;;;;;;4972212;28;20745;-69
2022/12/26 07:39:31;;;;;;;4.00;3.08;;;;;;;;;;4971827;28;20305;-70
2022/12/26 07:41:57;;;;;;;4.63;2.65;;;;;;;;;;4972458;28;20438;-69
2022/12/26 07:44:30;;;;;;;3.58;2.78;;;;;;;;;;4971645;28;20059;-69
2022/12/26 07:46:56;;;;;;;3.83;2.75;;;;;;;;;;4972230;28;20422;-69
2022/12/26 07:49:22;;;;;;;3.53;2.40;;;;;;;;;;4969925;28;20392;-70
2022/12/26 07:51:48;;;;;;;2.30;2.10;;;;;;;;;;4971816;28;20058;-69
2022/12/26 07:54:13;;;;;;;2.33;1.90;;;;;;;;;;4971348;28;20046;-69
2022/12/26 07:56:39;;;;;;;2.28;1.90;;;;;;;;;;4972149;28;20050;-70
2022/12/26 07:59:05;;;;;;;5.47;2.03;;;;;;;;;;4972038;28;20058;-70
2022/12/26 08:01:31;;;;;;;2.58;1.85;;;;;;;;;;4969333;28;20050;-70
2022/12/26 08:03:56;;;;;;;2.47;1.70;;;;;;;;;;4971247;28;20055;-70
2022/12/26 08:06:22;;;;;;;2.63;1.98;;;;;;;;;;4971776;28;20082;-69
2022/12/26 08:08:49;;;;;;;2.88;2.03;;;;;;;;;;4971958;28;20043;-69
2022/12/26 08:11:17;;;;;;;3.33;1.85;;;;;;;;;;4970781;28;20038;-70
2022/12/26 08:13:43;;;;;;;2.58;2.08;;;;;;;;;;4970576;28;20988;-70
2022/12/26 08:16:11;;;;;;;1.80;1.70;;;;;;;;;;4971525;28;20058;-70
2022/12/26 08:18:37;;;;;;;2.10;1.90;;;;;;;;;;4971828;28;20047;-70
2022/12/26 08:21:02;;;;;;;2.00;1.60;;;;;;;;;;4971701;28;20057;-69
2022/12/26 08:23:28;;;;;;;2.10;1.60;;;;;;;;;;4969609;28;20055;-70
2022/12/26 08:25:53;;;;;;;1.70;1.60;;;;;;;;;;4971457;28;20047;-70
2022/12/26 08:28:19;;;;;;;4.00;2.78;;;;;;;;;;4972110;28;20146;-70
2022/12/26 08:30:45;;;;;;;2.10;1.92;;;;;;;;;;4986233;28;20050;-69
2022/12/26 08:33:12;;;;;;;2.47;1.83;;;;;;;;;;4970314;28;20102;-69
2022/12/26 08:35:38;;;;;;;2.35;1.70;;;;;;;;;;4969829;28;20034;-69
2022/12/26 08:38:04;;;;;;;1.70;1.60;;;;;;;;;;4971372;28;20043;-69
2022/12/26 08:40:30;;;;;;;2.22;2.00;;;;;;;;;;4971343;28;20054;-70
2022/12/26 08:42:56;;;;;;;2.20;1.75;;;;;;;;;;4971523;28;20463;-69
2022/12/26 08:45:22;;;;;;;1.50;1.40;;;;;;;;;;4983817;28;20755;-69
2022/12/26 08:47:48;;;;;;;1.90;1.70;;;;;;;;;;4971097;28;20491;-71
2022/12/26 08:50:14;;;;;;;1.60;1.45;;;;;;;;;;4971327;28;20046;-70
2022/12/26 08:52:40;;;;;;;1.55;1.45;;;;;;;;;;4970974;28;20553;-69
2022/12/26 08:55:06;;;;;;;2.00;1.80;;;;;;;;;;4969749;28;20039;-69
2022/12/26 08:57:32;;;;;;;2.90;1.63;;;;;;;;;;4970286;28;20050;-70
2022/12/26 08:59:57;;;;;;;4.25;1.88;;;;;;;;;;4970888;28;20109;-70
2022/12/26 09:02:24;;;;;;;2.90;1.80;;;;;;;;;;4971010;28;20055;-70
2022/12/26 09:04:50;;;;;;;2.88;1.90;;;;;;;;;;4970412;28;20043;-69
2022/12/26 09:07:15;;;;;;;2.03;1.83;;;;;;;;;;4970251;28;20050;-69
2022/12/26 09:09:41;;;;;;;2.20;2.00;;;;;;;;;;4970192;28;20069;-68
2022/12/26 09:12:06;;;;;;;3.83;2.10;;;;;;;;;;4970998;28;20574;-69
2022/12/26 09:14:32;;;;;;;2.20;1.98;;;;;;;;;;4970663;28;20047;-70
2022/12/26 09:16:57;;;;;;;2.53;2.33;;;;;;;;;;4969902;28;20050;-69
2022/12/26 09:19:22;;;;;;;3.30;2.33;;;;;;;;;;4969931;28;20050;-69
2022/12/26 09:22:49;;;;;;;4.40;2.80;;;;;;;;;;4970889;28;20138;-69
2022/12/26 09:24:35;;;;;;;2.90;2.13;;;;;;;;;;4970391;28;20051;-69
2022/12/26 09:27:00;;;;;;;3.08;2.78;;;;;;;;;;4970949;28;20050;-71
2022/12/26 09:29:25;;;;;;;4.05;2.80;;;;;;;;;;4990752;28;20122;-69
2022/12/26 09:31:54;;;;;;;3.88;2.63;;;;;;;;;;4970735;28;20039;-69
2022/12/26 09:34:19;;;;;;;3.03;2.30;;;;;;;;;;4970068;28;20046;-69
2022/12/26 09:36:45;;;;;;;2.83;2.53;;;;;;;;;;4971013;28;20049;-70
2022/12/26 09:39:10;;;;;;;3.05;2.25;;;;;;;;;;4969972;28;20447;-69
2022/12/26 09:41:58;;;;;;;4.03;2.47;;;;;;;;;;4969661;28;20057;-69
2022/12/26 09:44:50;;;;;;;3.38;2.60;;;;;;;;;;4969976;28;20051;-69
2022/12/26 09:47:22;;;;;;;2.13;1.92;;;;;;;;;;4985520;28;20484;-69
2022/12/26 09:50:08;;;;;;;4.75;2.28;;;;;;;;;;4968874;28;20057;-69
2022/12/26 09:52:50;;;;;;;3.83;2.35;;;;;;;;;;4963291;28;20146;-69
2022/12/26 09:55:22;;;;;;;2.90;2.60;;;;;;;;;;4969891;28;20053;-69
2022/12/26 09:57:50;;;;;;;4.75;2.60;;;;;;;;;;4970037;28;20057;-70
2022/12/26 10:00:23;;;;;;;2.38;1.95;;;;;;;;;;4969423;28;20050;-69
2022/12/26 10:02:52;;;;;;;3.35;1.98;;;;;;;;;;4985269;28;20057;-69
2022/12/26 10:05:20;;;;;;;2.33;1.80;;;;;;;;;;4969771;28;20110;-70
2022/12/26 10:07:57;;;;;;;7.72;1.90;;;;;;;;;;4969934;28;20065;-69
2022/12/26 10:10:48;;;;;;;2.70;1.95;;;;;;;;;;4970362;28;20109;-69
2022/12/26 10:13:20;;;;;;;2.65;2.45;;;;;;;;;;4966393;28;20058;-69
2022/12/26 10:15:56;;;;;;;;;;;;;;;;;;4973159;28;20050;-70
2022/12/26 10:18:42;;;;;;;3.55;2.28;;;;;;;;;;4974180;28;20370;-69
2022/12/26 10:21:32;;;;;;;2.72;2.53;;;;;;;;;;4973838;28;20051;-69
2022/12/26 10:24:02;;;;;;;5.20;2.30;;;;;;;;;;4969900;28;20051;-69
2022/12/26 10:26:32;;;;;;;2.25;1.90;;;;;;;;;;4965710;28;20054;-69
2022/12/26 10:29:07;;;;;;;2.60;2.20;;;;;;;;;;4973847;28;20046;-69
2022/12/26 10:31:38;;;;;;;2.10;1.90;;;;;;;;;;4980565;23;20047;-72
2022/12/26 10:34:29;;;;;;;2.58;1.80;;;;;;;;;;4958488;28;20418;-74
2022/12/26 10:37:31;;;;;;;1.77;1.63;;;;;;;;;;4963515;28;20113;-74
2022/12/26 10:40:06;;;;;;;2.13;1.70;;;;;;;;;;4985629;28;20043;-74
2022/12/26 10:42:47;;;;;;;2.42;1.40;;;;;;;;;;4973324;28;20055;-72
2022/12/26 10:45:22;;;;;;;1.50;1.40;;;;;;;;;;4971761;28;20097;-73
2022/12/26 10:47:50;;;;;;;2.00;1.80;;;;;;;;;;4972818;28;20054;-73
2022/12/26 10:50:19;;;;;;;2.75;1.70;;;;;;;;;;4973685;28;20459;-72
2022/12/26 10:52:45;;;;;;;2.78;1.40;;;;;;;;;;4973148;28;20034;-72
2022/12/26 10:55:16;;;;;;;1.60;1.40;;;;;;;;;;4971721;28;20438;-72
2022/12/26 10:57:44;;;;;;;1.75;1.65;;;;;;;;;;4972549;28;20471;-73
2022/12/26 11:00:29;;;;;;;2.63;1.52;;;;;;;;;;4972822;28;20051;-72
2022/12/26 11:03:06;;;;;;;2.22;1.58;;;;;;;;;;4973247;28;20125;-73
2022/12/26 11:05:34;;;;;;;3.15;1.42;;;;;;;;;;4971824;28;20391;-72
2022/12/26 11:08:18;;;;;;;4.20;1.40;;;;;;;;;;4970860;28;20061;-73
2022/12/26 11:11:02;;;;;;;2.75;1.40;;;;;;;;;;4966916;28;20070;-73
2022/12/26 11:13:31;;;;;;;2.55;1.20;;;;;;;;;;4972317;28;20082;-72
2022/12/26 11:15:56;;;;;;;1.38;1.27;;;;;;;;;;4971929;28;20046;-72
2022/12/26 11:18:36;;;;;;;1.77;1.40;;;;;;;;;;4971938;28;20410;-73
2022/12/26 11:21:29;;;;;;;1.33;1.23;;;;;;;;;;4972360;28;20755;-72
2022/12/26 11:24:07;;;;;;;2.85;1.77;;;;;;;;;;4949683;28;20424;-73
2022/12/26 11:26:32;;;;;;;1.83;1.50;;;;;;;;;;4953369;28;20415;-72
2022/12/26 11:29:21;;;;;;;1.95;1.75;;;;;;;;;;4965652;28;20499;-72
2022/12/26 11:32:00;;;;;;;2.13;1.48;;;;;;;;;;4966067;28;20047;-73
2022/12/26 11:34:36;;;;;;;3.63;1.67;;;;;;;;;;4972911;28;20054;-72
2022/12/26 11:37:04;;;;;;;2.65;1.50;;;;;;;;;;4974090;28;20415;-73
2022/12/26 11:39:33;;;;;;;2.13;1.63;;;;;;;;;;4975256;28;20065;-72
2022/12/26 11:41:59;;;;;;;1.50;1.40;;;;;;;;;;4976126;28;20565;-72
2022/12/26 11:44:34;;;;;;;2.17;1.70;;;;;;;;;;4971796;28;20050;-73
2022/12/26 11:47:15;;;;;;;2.47;1.83;;;;;;;;;;4972368;28;20052;-73
2022/12/26 11:49:53;;;;;;;;;;;;;;;;;;4972197;28;20109;-72
2022/12/26 11:52:44;;;;;;;2.75;1.70;;;;;;;;;;4971514;28;19941;-72
2022/12/26 11:55:22;;;;;;;2.28;1.75;;;;;;;;;;4971301;28;20043;-72
2022/12/26 11:58:05;;;;;;;1.88;1.70;;;;;;;;;;4971674;28;20043;-73
2022/12/26 12:01:00;;;;;;;3.20;2.20;;;;;;;;;;4971194;28;20981;-73
2022/12/26 12:03:29;;;;;;;3.67;2.20;;;;;;;;;;4971060;28;20094;-73
2022/12/26 12:06:32;;;;;;;3.28;2.22;;;;;;;;;;4971149;28;20054;-74
2022/12/26 12:09:39;;;;;;;4.97;3.08;;;;;;;;;;4972063;28;20555;-73
2022/12/26 12:12:29;;;;;;;6.13;2.60;;;;;;;;;;4968561;28;20078;-73
2022/12/26 12:15:11;;;;;;;3.20;2.50;;;;;;;;;;4971016;28;20089;-72
2022/12/26 12:18:00;;;;;;;4.28;2.75;;;;;;;;;;4951822;28;20130;-73
2022/12/26 12:20:46;;;;;;;5.90;3.33;;;;;;;;;;4952272;28;20074;-74
2022/12/26 12:23:22;;;;;;;4.65;2.85;;;;;;;;;;4960177;28;20047;-73
2022/12/26 12:25:53;;;;;;;4.55;2.50;;;;;;;;;;4970074;28;20533;-73
2022/12/26 12:28:42;;;;;;;2.75;2.40;;;;;;;;;;4971609;28;20530;-72
2022/12/26 12:31:32;;;;;;;3.60;2.67;;;;;;;;;;4971154;28;20042;-74
2022/12/26 12:34:23;;;;;;;4.05;2.63;;;;;;;;;;4967489;28;20050;-73
2022/12/26 12:36:57;;;;;;;3.43;2.50;;;;;;;;;;4965357;28;20081;-73
2022/12/26 12:39:43;;;;;;;4.38;3.00;;;;;;;;;;4970674;28;20317;-73
2022/12/26 12:42:39;;;;;;;8.38;5.38;;;;;;;;;;4940789;28;20133;-73
2022/12/26 12:45:31;;;;;;;5.60;3.75;;;;;;;;;;4969528;28;20435;-72
2022/12/26 12:48:29;;;;;;;2.43;1.70;;;;;;;;;;4968555;28;20051;-72
2022/12/26 12:51:04;;;;;;;1.20;0.93;;;;;;;;;;4970922;28;20050;-74
2022/12/26 12:53:44;;;;;;;1.20;1.10;;;;;;;;;;4970621;28;20043;-73
2022/12/26 12:56:43;;;;;;;3.03;1.67;;;;;;;;;;4976470;28;20058;-73
2022/12/26 12:59:28;;;;;;;0.98;0.90;;;;;;;;;;4970870;28;20051;-73
2022/12/26 13:01:58;;;;;;;1.17;1.10;;;;;;;;;;4984154;28;20046;-73
2022/12/26 13:04:42;;;;;;;1.75;1.40;;;;;;;;;;4961896;28;20054;-73
2022/12/26 13:07:17;;;;;;;4.47;1.60;;;;;;;;;;4950934;28;20047;-73
2022/12/26 13:09:50;;;;;;;3.67;1.33;;;;;;;;;;4969610;28;20051;-74
2022/12/26 13:12:29;;;;;;;5.00;1.27;;;;;;;;;;4970607;28;20073;-73
2022/12/26 13:14:59;;;;;;;4.15;1.40;;;;;;;;;;4970126;28;20039;-73
2022/12/26 13:17:36;;;;;;;3.28;1.48;;;;;;;;;;4969478;28;20194;-73
2022/12/26 13:20:33;;;;;;;5.43;2.33;;;;;;;;;;4969281;28;20042;-74
2022/12/26 13:26:10;;;;;;;1.70;1.60;;;;;;;;;;4948261;28;20062;-74
2022/12/26 13:28:46;;;;;;;3.90;2.63;;;;;;;;;;4954479;28;20054;-73
2022/12/26 13:31:12;;;;;;;3.20;2.00;;;;;;;;;;4969913;28;20187;-73
2022/12/26 13:33:41;;;;;;;3.22;2.28;;;;;;;;;;4970234;28;20060;-72
2022/12/26 13:36:06;;;;;;;3.22;2.28;;;;;;;;;;4969932;28;20785;-74
2022/12/26 13:38:57;;;;;;;3.50;2.25;;;;;;;;;;4970619;28;20503;-74
2022/12/26 13:44:18;;;;;;;3.53;2.25;;;;;;;;;;4969851;28;20065;-74
2022/12/26 13:46:46;;;;;;;2.95;2.00;;;;;;;;;;4971394;28;20046;-73
2022/12/26 13:49:38;;;;;;;4.53;2.00;;;;;;;;;;4974451;28;20055;-73
2022/12/26 13:52:10;;;;;;;2.00;1.77;;;;;;;;;;4975023;28;20054;-72
2022/12/26 13:54:57;;;;;;;2.95;2.08;;;;;;;;;;4988316;28;20133;-72
2022/12/26 13:57:43;;;;;;;4.15;2.15;;;;;;;;;;4973677;28;20043;-74
2022/12/26 14:00:14;;;;;;;2.78;2.13;;;;;;;;;;4974029;28;20055;-74
2022/12/26 14:03:17;;;;;;;2.97;2.67;;;;;;;;;;4973330;28;20483;-73
2022/12/26 14:05:55;;;;;;;3.20;2.42;;;;;;;;;;4966931;28;20046;-74
2022/12/26 14:08:37;;;;;;;2.03;1.50;;;;;;;;;;4974248;28;20047;-72
2022/12/26 14:11:48;;;;;;;3.05;2.30;;;;;;;;;;4973773;28;20051;-73
2022/12/26 14:14:47;;;;;;;7.55;3.30;;;;;;;;;;4951206;28;20046;-73
2022/12/26 14:17:19;;;;;;;8.82;3.00;;;;;;;;;;4973787;28;20146;-73
2022/12/26 14:20:15;;;;;;;3.35;2.58;;;;;;;;;;4973473;28;20888;-74
2022/12/26 14:22:58;;;;;;;3.90;2.80;;;;;;;;;;4973773;28;20046;-73
2022/12/26 14:25:31;;;;;;;4.68;2.90;;;;;;;;;;4971584;28;20039;-74
2022/12/26 14:28:21;;;;;;;4.68;3.00;;;;;;;;;;4973968;28;20061;-74
2022/12/26 14:31:05;;;;;;;2.75;2.08;;;;;;;;;;4973978;28;20051;-74
2022/12/26 14:33:47;;;;;;;3.97;3.05;;;;;;;;;;4973193;28;20141;-73
2022/12/26 14:36:23;;;;;;;3.33;2.28;;;;;;;;;;4973251;28;20093;-73
2022/12/26 14:38:59;;;;;;;2.55;2.13;;;;;;;;;;4975154;28;20057;-72
2022/12/26 14:44:35;;;;;;;3.80;2.72;;;;;;;;;;4972954;28;20370;-72
2022/12/26 14:47:02;;;;;;;3.40;2.42;;;;;;;;;;4967942;28;20046;-72
2022/12/26 14:49:30;;;;;;;3.90;3.10;;;;;;;;;;4964992;28;20047;-73
2022/12/26 14:52:23;;;;;;;7.28;2.60;;;;;;;;;;4973172;28;20066;-73
2022/12/26 14:54:51;;;;;;;5.63;1.90;;;;;;;;;;4972509;28;20157;-73
2022/12/26 14:57:42;;;;;;;2.92;1.90;;;;;;;;;;4972246;28;20047;-73
2022/12/26 15:00:19;;;;;;;3.50;2.27;;;;;;;;;;4970413;28;20109;-73
2022/12/26 15:02:52;;;;;;;3.58;2.40;;;;;;;;;;4972944;28;20047;-74
2022/12/26 15:05:26;;;;;;;5.10;2.80;;;;;;;;;;4971234;28;20074;-75
2022/12/26 15:08:08;;;;;;;2.90;2.47;;;;;;;;;;4971880;28;20054;-72
2022/12/26 15:10:59;;;;;;;2.42;2.13;;;;;;;;;;4965777;28;20499;-72
2022/12/26 15:13:55;;;;;;;5.35;2.72;;;;;;;;;;4972505;28;20663;-73
2022/12/26 15:16:57;;;;;;;3.60;2.45;;;;;;;;;;4972151;28;20074;-73
2022/12/26 15:19:34;;;;;;;4.22;2.03;;;;;;;;;;4963729;28;20095;-72
2022/12/26 15:22:34;;;;;;;1.77;1.20;;;;;;;;;;4969857;28;20062;-73
2022/12/26 15:25:29;;;;;;;5.75;2.38;;;;;;;;;;4972079;28;20046;-73
2022/12/26 15:28:24;;;;;;;3.53;2.35;;;;;;;;;;4941211;28;20066;-72
2022/12/26 15:31:04;;;;;;;2.42;2.22;;;;;;;;;;4959918;28;20039;-73
2022/12/26 15:33:39;;;;;;;2.38;2.17;;;;;;;;;;4945029;28;20054;-74
2022/12/26 15:36:32;;;;;;;1.52;1.42;;;;;;;;;;4952444;28;20500;-73
2022/12/26 15:39:18;;;;;;;3.78;1.73;;;;;;;;;;4953101;28;20500;-75
2022/12/26 15:42:33;;;;;;;1.60;1.50;;;;;;;;;;4966205;28;20142;-73
2022/12/26 15:45:07;;;;;;;3.65;2.72;;;;;;;;;;4943850;29;20114;-74
2022/12/26 15:47:54;;;;;;;3.45;1.90;;;;;;;;;;4933347;28;20496;-73
2022/12/26 15:50:31;;;;;;;3.00;1.77;;;;;;;;;;4933638;28;20051;-73
2022/12/26 15:52:59;;;;;;;5.32;2.10;;;;;;;;;;4947452;28;20451;-74
2022/12/26 15:55:28;;;;;;;4.40;1.80;;;;;;;;;;4951174;28;20050;-73
2022/12/26 15:58:23;;;;;;;3.42;1.77;;;;;;;;;;4952843;28;20062;-73
2022/12/26 16:00:53;;;;;;;3.05;1.50;;;;;;;;;;4943990;28;20043;-73
2022/12/26 16:03:28;;;;;;;1.40;1.30;;;;;;;;;;4958579;28;20799;-74
2022/12/26 16:06:07;;;;;;;1.42;1.17;;;;;;;;;;4970808;28;20057;-74
2022/12/26 16:08:54;;;;;;;0.90;0.90;;;;;;;;;;4972137;28;20511;-73
2022/12/26 16:11:22;;;;;;;1.30;1.20;;;;;;;;;;4971663;28;20043;-73
2022/12/26 16:14:12;;;;;;;1.75;1.50;;;;;;;;;;4970532;28;20055;-73
2022/12/26 16:16:38;;;;;;;1.25;1.15;;;;;;;;;;4963792;28;20051;-73
2022/12/26 16:19:19;;;;;;;0.77;0.77;;;;;;;;;;4971904;28;20134;-74
2022/12/26 16:24:36;;;;;;;3.83;1.33;;;;;;;;;;4969031;28;20087;-74
2022/12/26 16:27:04;;;;;;;0.90;0.70;;;;;;;;;;4971607;28;20058;-73
2022/12/26 16:29:30;;;;;;;0.75;0.70;;;;;;;;;;4951806;28;20055;-74
2022/12/26 16:32:04;;;;;;;0.60;0.60;;;;;;;;;;4975950;23;20054;-67
2022/12/26 16:34:34;;;;;;;1.17;0.93;;;;;;;;;;4970824;28;20407;-69
2022/12/26 16:37:00;;;;;;;1.08;0.95;;;;;;;;;;4955333;28;20051;-67
2022/12/26 16:39:26;;;;;;;2.60;0.68;;;;;;;;;;4949622;28;20515;-68
2022/12/26 16:42:14;;;;;;;6.72;0.60;;;;;;;;;;4951147;28;20051;-67
2022/12/26 16:44:43;;;;;;;1.13;1.02;;;;;;;;;;4951443;28;20102;-67
2022/12/26 16:47:14;;;;;;;0.80;0.80;;;;;;;;;;4951230;28;20058;-67
2022/12/26 16:49:42;;;;;;;1.25;0.80;;;;;;;;;;4951416;28;20043;-67
2022/12/26 16:52:29;;;;;;;0.63;0.43;;;;;;;;;;4951844;28;20138;-67
2022/12/26 16:54:54;;;;;;;0.55;0.52;;;;;;;;;;4951927;28;20047;-67
2022/12/26 16:57:21;;;;;;;0.60;0.50;;;;;;;;;;4949832;28;20092;-68
2022/12/26 16:59:53;;;;;;;0.55;0.52;;;;;;;;;;4949330;28;20051;-67
2022/12/26 17:02:26;;;;;;;0.40;0.40;;;;;;;;;;4951461;28;20130;-69
2022/12/26 17:04:59;;;;;;;0.50;0.50;;;;;;;;;;4951196;28;20062;-67
2022/12/26 17:07:26;;;;;;;0.47;0.40;;;;;;;;;;4951252;28;20067;-70
2022/12/26 17:09:55;;;;;;;0.60;0.60;;;;;;;;;;4950564;28;20054;-67
2022/12/26 17:12:23;;;;;;;0.45;0.43;;;;;;;;;;4951469;28;20195;-69
2022/12/26 17:14:50;;;;;;;1.80;0.57;;;;;;;;;;4965804;28;20495;-68
2022/12/26 17:17:21;;;;;;;0.57;0.40;;;;;;;;;;4951511;28;20043;-68
2022/12/26 17:19:48;;;;;;;1.00;0.75;;;;;;;;;;4950279;28;20044;-68
2022/12/26 17:22:14;;;;;;;0.68;0.68;;;;;;;;;;4950190;28;20138;-68
2022/12/26 17:24:40;;;;;;;0.40;0.40;;;;;;;;;;4950830;28;20146;-68
2022/12/26 17:27:25;;;;;;;0.50;0.50;;;;;;;;;;4951488;28;20106;-68
2022/12/26 17:29:54;;;;;;;0.80;0.80;;;;;;;;;;4951155;28;20135;-68
2022/12/26 17:32:29;;;;;;;0.50;0.50;;;;;;;;;;4949923;28;20047;-68
2022/12/26 17:34:58;;;;;;;0.57;0.52;;;;;;;;;;4950716;28;20468;-68